Time;durP1;ratioP1;P1;durP2;ratioP2;P2;SDS_P1;SDS_P2;PMS_P1;PMS_P2;Temp;Humidity;BMP_temperature;BMP_pressure;BME280_temperature;BME280_humidity;BME280_pressure;Samples;Min_cycle;Max_cycle;Signal;HPM_P1;HPM_P2
2022/07/12 00:02:09;;;;;;;1.90;1.05;;;;;;;;;;5048852;28;20017;-65
2022/07/12 00:04:36;;;;;;;3.25;1.92;;;;;;;;;;5064622;28;20040;-64
2022/07/12 00:07:03;;;;;;;4.78;1.90;;;;;;;;;;5068228;28;20036;-65
2022/07/12 00:09:30;;;;;;;3.10;1.67;;;;;;;;;;5068083;28;20501;-64
2022/07/12 00:11:57;;;;;;;5.57;1.73;;;;;;;;;;5069819;28;20028;-66
2022/07/12 00:14:25;;;;;;;1.00;0.80;;;;;;;;;;5062091;28;20091;-63
2022/07/12 00:16:52;;;;;;;3.17;1.10;;;;;;;;;;5066246;28;20487;-61
2022/07/12 00:19:19;;;;;;;2.88;1.50;;;;;;;;;;5053084;28;20033;-62
2022/07/12 00:21:46;;;;;;;7.68;1.40;;;;;;;;;;5065180;28;20443;-62
2022/07/12 00:24:13;;;;;;;2.80;1.40;;;;;;;;;;5069550;28;20067;-62
2022/07/12 00:26:39;;;;;;;4.22;1.63;;;;;;;;;;5067453;28;20543;-68
2022/07/12 00:29:06;;;;;;;7.13;1.25;;;;;;;;;;5065995;28;20139;-68
2022/07/12 00:31:34;;;;;;;3.20;1.63;;;;;;;;;;5048078;28;20029;-71
2022/07/12 00:34:00;;;;;;;3.10;1.67;;;;;;;;;;5050885;28;20051;-67
2022/07/12 00:36:27;;;;;;;2.65;1.48;;;;;;;;;;5052880;28;20021;-62
2022/07/12 00:38:54;;;;;;;2.58;1.60;;;;;;;;;;5054110;28;20036;-63
2022/07/12 00:41:20;;;;;;;3.10;1.55;;;;;;;;;;5072985;28;20086;-67
2022/07/12 00:43:47;;;;;;;5.93;2.67;;;;;;;;;;5073100;28;20434;-65
2022/07/12 00:46:14;;;;;;;13.10;2.63;;;;;;;;;;5067574;28;20024;-63
2022/07/12 00:48:41;;;;;;;9.43;2.23;;;;;;;;;;5047700;28;20092;-63
2022/07/12 00:51:08;;;;;;;7.57;1.67;;;;;;;;;;5047499;28;20482;-62
2022/07/12 00:53:36;;;;;;;2.90;1.40;;;;;;;;;;5067231;28;20409;-61
2022/07/12 00:56:04;;;;;;;5.60;1.40;;;;;;;;;;5069802;28;20025;-63
2022/07/12 00:58:31;;;;;;;9.07;2.53;;;;;;;;;;5068240;28;20041;-62
2022/07/12 01:00:58;;;;;;;3.43;1.77;;;;;;;;;;5052807;28;20029;-63
2022/07/12 01:03:27;;;;;;;2.20;1.40;;;;;;;;;;5052812;28;20033;-60
2022/07/12 01:05:54;;;;;;;5.23;2.20;;;;;;;;;;5052782;28;20029;-62
2022/07/12 01:08:21;;;;;;;2.03;1.37;;;;;;;;;;5051184;28;20082;-62
2022/07/12 01:10:52;;;;;;;3.90;1.97;;;;;;;;;;5067071;28;20057;-62
2022/07/12 01:13:18;;;;;;;2.80;1.87;;;;;;;;;;5067197;28;20040;-65
2022/07/12 01:15:58;;;;;;;3.43;1.87;;;;;;;;;;5067285;28;20436;-61
2022/07/12 01:18:27;;;;;;;3.60;2.33;;;;;;;;;;5069491;28;20138;-61
2022/07/12 01:20:53;;;;;;;5.73;2.27;;;;;;;;;;5071352;28;20091;-64
2022/07/12 01:23:21;;;;;;;10.53;2.33;;;;;;;;;;5072131;28;20371;-63
2022/07/12 01:25:48;;;;;;;3.23;1.83;;;;;;;;;;5072413;28;20060;-61
2022/07/12 01:28:17;;;;;;;2.87;1.77;;;;;;;;;;5072433;28;20028;-62
2022/07/12 01:30:47;;;;;;;8.80;2.20;;;;;;;;;;5069556;28;20040;-61
2022/07/12 01:33:15;;;;;;;15.87;2.27;;;;;;;;;;5065949;28;20391;-62
2022/07/12 01:35:42;;;;;;;3.30;1.73;;;;;;;;;;5067038;28;20532;-61
2022/07/12 01:38:09;;;;;;;3.67;1.87;;;;;;;;;;5067047;28;20096;-61
2022/07/12 01:40:36;;;;;;;4.17;1.60;;;;;;;;;;5068782;28;20021;-61
2022/07/12 01:43:03;;;;;;;2.87;1.53;;;;;;;;;;5072173;28;20040;-61
2022/07/12 01:45:30;;;;;;;2.90;1.50;;;;;;;;;;5059317;28;20078;-60
2022/07/12 01:47:58;;;;;;;2.97;1.87;;;;;;;;;;5052315;28;20023;-61
2022/07/12 01:50:25;;;;;;;2.00;1.33;;;;;;;;;;5052082;28;20021;-61
2022/07/12 01:52:53;;;;;;;3.53;1.57;;;;;;;;;;5050034;28;20052;-60
2022/07/12 01:55:20;;;;;;;3.43;1.37;;;;;;;;;;5046557;28;20029;-62
2022/07/12 01:57:47;;;;;;;1.87;1.20;;;;;;;;;;5058582;28;20029;-62
2022/07/12 02:00:14;;;;;;;2.83;1.57;;;;;;;;;;5066840;28;20021;-61
2022/07/12 02:02:41;;;;;;;6.63;1.97;;;;;;;;;;5052285;28;20382;-62
2022/07/12 02:05:08;;;;;;;3.87;1.93;;;;;;;;;;5052151;28;20028;-63
2022/07/12 02:07:35;;;;;;;3.70;1.73;;;;;;;;;;5051816;28;20523;-61
2022/07/12 02:10:01;;;;;;;8.93;2.27;;;;;;;;;;5054917;28;20025;-62
2022/07/12 02:12:29;;;;;;;4.13;1.83;;;;;;;;;;5067969;28;20427;-62
2022/07/12 02:14:55;;;;;;;5.00;1.60;;;;;;;;;;5074564;28;20368;-63
2022/07/12 02:17:22;;;;;;;1.37;0.97;;;;;;;;;;5070637;28;20363;-61
2022/07/12 02:19:49;;;;;;;3.43;1.67;;;;;;;;;;5070830;28;20479;-62
2022/07/12 02:22:15;;;;;;;3.93;1.70;;;;;;;;;;5052460;28;20025;-62
2022/07/12 02:24:42;;;;;;;2.90;1.70;;;;;;;;;;5064184;28;20091;-60
2022/07/12 02:27:09;;;;;;;2.63;1.60;;;;;;;;;;5075874;28;20034;-62
2022/07/12 02:29:36;;;;;;;2.57;1.67;;;;;;;;;;5075189;28;20027;-62
2022/07/12 02:32:03;;;;;;;6.60;1.50;;;;;;;;;;5075643;28;20123;-62
2022/07/12 02:34:30;;;;;;;5.20;1.40;;;;;;;;;;5075882;28;20024;-60
2022/07/12 02:36:57;;;;;;;2.77;1.50;;;;;;;;;;5056588;28;20056;-60
2022/07/12 02:39:23;;;;;;;2.63;1.27;;;;;;;;;;5055914;28;20103;-63
2022/07/12 02:41:50;;;;;;;10.87;2.10;;;;;;;;;;5068141;28;20028;-62
2022/07/12 02:44:17;;;;;;;3.70;2.20;;;;;;;;;;5070131;28;20501;-63
2022/07/12 02:46:43;;;;;;;4.43;1.93;;;;;;;;;;5069551;28;20021;-62
2022/07/12 02:49:10;;;;;;;3.50;1.53;;;;;;;;;;5075494;28;20467;-62
2022/07/12 02:51:37;;;;;;;2.83;1.73;;;;;;;;;;5060736;28;20750;-63
2022/07/12 02:54:03;;;;;;;3.13;2.10;;;;;;;;;;5058306;28;20112;-62
2022/07/12 02:56:30;;;;;;;3.33;1.67;;;;;;;;;;5057576;28;20460;-63
2022/07/12 02:58:57;;;;;;;2.00;1.17;;;;;;;;;;5074935;28;20524;-62
2022/07/12 03:01:23;;;;;;;2.57;1.60;;;;;;;;;;5070008;28;20411;-63
2022/07/12 03:03:50;;;;;;;2.77;1.80;;;;;;;;;;5069039;28;20033;-62
2022/07/12 03:06:17;;;;;;;4.57;2.10;;;;;;;;;;5049716;28;20021;-62
2022/07/12 03:08:43;;;;;;;6.67;2.10;;;;;;;;;;5049653;28;20057;-62
2022/07/12 03:11:10;;;;;;;2.93;1.53;;;;;;;;;;5054781;28;20028;-63
2022/07/12 03:13:37;;;;;;;3.20;1.80;;;;;;;;;;5073132;28;20024;-62
2022/07/12 03:16:04;;;;;;;2.50;1.70;;;;;;;;;;5071175;28;20054;-62
2022/07/12 03:18:31;;;;;;;2.67;1.87;;;;;;;;;;5056357;28;20075;-62
2022/07/12 03:20:58;;;;;;;11.87;2.43;;;;;;;;;;5061769;28;20021;-63
2022/07/12 03:23:25;;;;;;;6.27;1.53;;;;;;;;;;5054728;28;20053;-62
2022/07/12 03:25:51;;;;;;;25.00;2.07;;;;;;;;;;5052938;28;20033;-62
2022/07/12 03:28:18;;;;;;;4.77;1.97;;;;;;;;;;5054387;28;20458;-63
2022/07/12 03:30:45;;;;;;;9.80;2.40;;;;;;;;;;5049186;28;20411;-62
2022/07/12 03:33:11;;;;;;;5.03;2.27;;;;;;;;;;5053892;28;20051;-62
2022/07/12 03:35:38;;;;;;;10.67;2.63;;;;;;;;;;5054625;28;20482;-62
2022/07/12 03:38:04;;;;;;;3.17;2.20;;;;;;;;;;5062429;28;20028;-62
2022/07/12 03:40:34;;;;;;;3.67;2.20;;;;;;;;;;5057811;28;20426;-62
2022/07/12 03:43:01;;;;;;;3.40;2.30;;;;;;;;;;5067860;28;20063;-62
2022/07/12 03:45:28;;;;;;;6.57;3.17;;;;;;;;;;5056931;28;20361;-62
2022/07/12 03:47:54;;;;;;;3.97;2.10;;;;;;;;;;5054798;28;20095;-62
2022/07/12 03:50:21;;;;;;;3.90;2.20;;;;;;;;;;5064544;28;20052;-62
2022/07/12 03:52:48;;;;;;;4.77;2.30;;;;;;;;;;5057490;28;20029;-62
2022/07/12 03:55:15;;;;;;;4.77;2.07;;;;;;;;;;5070042;28;20475;-62
2022/07/12 03:57:41;;;;;;;3.97;2.37;;;;;;;;;;5074328;28;20016;-62
2022/07/12 04:00:12;;;;;;;5.10;1.80;;;;;;;;;;5059607;28;20119;-61
2022/07/12 04:02:39;;;;;;;2.87;2.13;;;;;;;;;;5055646;28;20024;-60
2022/07/12 04:05:07;;;;;;;4.97;2.73;;;;;;;;;;5072282;28;20024;-60
2022/07/12 04:07:33;;;;;;;3.70;2.57;;;;;;;;;;5070064;28;20298;-60
2022/07/12 04:10:00;;;;;;;3.73;2.63;;;;;;;;;;5058156;28;20103;-60
2022/07/12 04:12:27;;;;;;;9.37;2.80;;;;;;;;;;5060842;28;20025;-63
2022/07/12 04:14:54;;;;;;;3.70;2.50;;;;;;;;;;5068230;28;20032;-62
2022/07/12 04:17:20;;;;;;;3.30;2.20;;;;;;;;;;5071263;28;20021;-62
2022/07/12 04:19:47;;;;;;;5.27;2.77;;;;;;;;;;5073670;28;20380;-65
2022/07/12 04:22:14;;;;;;;3.50;1.80;;;;;;;;;;5055741;28;20025;-64
2022/07/12 04:24:40;;;;;;;5.17;2.63;;;;;;;;;;5070368;28;20033;-63
2022/07/12 04:27:07;;;;;;;2.97;1.70;;;;;;;;;;5073646;28;20048;-62
2022/07/12 04:29:34;;;;;;;7.50;2.53;;;;;;;;;;5070144;28;20031;-64
2022/07/12 04:32:00;;;;;;;4.77;2.53;;;;;;;;;;5067698;28;20476;-62
2022/07/12 04:34:27;;;;;;;5.50;2.83;;;;;;;;;;5066398;28;20055;-62
2022/07/12 04:36:54;;;;;;;5.20;2.60;;;;;;;;;;5047994;28;20025;-63
2022/07/12 04:39:21;;;;;;;5.00;2.70;;;;;;;;;;5066281;28;20361;-62
2022/07/12 04:41:48;;;;;;;12.63;2.67;;;;;;;;;;5073042;28;20035;-62
2022/07/12 04:44:14;;;;;;;6.73;2.40;;;;;;;;;;5059229;28;20124;-60
2022/07/12 04:46:41;;;;;;;4.63;2.77;;;;;;;;;;5053001;28;20093;-61
2022/07/12 04:49:07;;;;;;;4.90;2.50;;;;;;;;;;5053052;28;20028;-62
2022/07/12 04:51:34;;;;;;;3.77;2.40;;;;;;;;;;5050645;28;20056;-66
2022/07/12 04:54:01;;;;;;;18.57;2.53;;;;;;;;;;5055182;28;20036;-62
2022/07/12 04:56:27;;;;;;;3.10;2.07;;;;;;;;;;5049062;28;20025;-62
2022/07/12 04:58:54;;;;;;;6.33;3.27;;;;;;;;;;5047495;28;20031;-60
2022/07/12 05:01:21;;;;;;;3.73;2.37;;;;;;;;;;5049097;28;20108;-61
2022/07/12 05:03:48;;;;;;;4.53;2.40;;;;;;;;;;5052467;28;20037;-62
2022/07/12 05:06:15;;;;;;;4.57;2.47;;;;;;;;;;5068323;28;20036;-63
2022/07/12 05:08:42;;;;;;;7.40;2.53;;;;;;;;;;5072740;28;20033;-62
2022/07/12 05:11:08;;;;;;;4.27;2.37;;;;;;;;;;5072767;28;20021;-62
2022/07/12 05:13:35;;;;;;;10.90;2.83;;;;;;;;;;5071000;28;20471;-63
2022/07/12 05:16:02;;;;;;;6.87;2.93;;;;;;;;;;5067193;28;20028;-64
2022/07/12 05:18:30;;;;;;;6.23;2.83;;;;;;;;;;5050683;28;20064;-63
2022/07/12 05:20:57;;;;;;;3.53;2.33;;;;;;;;;;5054447;28;20036;-61
2022/07/12 05:23:24;;;;;;;3.83;2.30;;;;;;;;;;5068014;28;20534;-63
2022/07/12 05:25:51;;;;;;;4.33;2.17;;;;;;;;;;5072355;28;20028;-63
2022/07/12 05:28:18;;;;;;;7.50;3.07;;;;;;;;;;5072379;28;20032;-63
2022/07/12 05:30:44;;;;;;;9.57;3.97;;;;;;;;;;5072281;28;20035;-65
2022/07/12 05:33:14;;;;;;;6.00;2.13;;;;;;;;;;5072424;28;20029;-62
2022/07/12 05:35:41;;;;;;;6.47;3.07;;;;;;;;;;5070604;28;20032;-61
2022/07/12 05:38:08;;;;;;;3.50;2.40;;;;;;;;;;5067097;28;20062;-62
2022/07/12 05:40:34;;;;;;;4.80;2.87;;;;;;;;;;5066764;28;20029;-64
2022/07/12 05:43:01;;;;;;;8.40;3.33;;;;;;;;;;5046160;28;20041;-62
2022/07/12 05:45:28;;;;;;;4.20;2.70;;;;;;;;;;5046945;28;20029;-62
2022/07/12 05:47:55;;;;;;;5.67;3.00;;;;;;;;;;5052158;28;20029;-63
2022/07/12 05:50:22;;;;;;;3.97;2.47;;;;;;;;;;5051932;28;20052;-60
2022/07/12 05:55:33;;;;;;;3.25;2.38;;;;;;;;;;5052253;28;20052;-61
2022/07/12 05:58:00;;;;;;;5.40;3.00;;;;;;;;;;5050766;28;20601;-64
2022/07/12 06:00:27;;;;;;;3.77;2.43;;;;;;;;;;5046656;28;20040;-65
2022/07/12 06:02:53;;;;;;;3.23;1.90;;;;;;;;;;5046821;28;20021;-64
2022/07/12 06:05:20;;;;;;;3.27;2.23;;;;;;;;;;5051565;28;20553;-63
2022/07/12 06:07:47;;;;;;;2.70;1.83;;;;;;;;;;5066946;28;20036;-61
2022/07/12 06:10:14;;;;;;;4.57;2.67;;;;;;;;;;5072169;28;20040;-62
2022/07/12 06:12:40;;;;;;;5.00;2.97;;;;;;;;;;5071923;28;20103;-62
2022/07/12 06:15:07;;;;;;;3.20;2.03;;;;;;;;;;5072047;28;20028;-63
2022/07/12 06:17:35;;;;;;;2.70;2.00;;;;;;;;;;5062966;28;20112;-62
2022/07/12 06:20:02;;;;;;;4.03;1.87;;;;;;;;;;5051076;28;20168;-60
2022/07/12 06:22:29;;;;;;;5.83;2.90;;;;;;;;;;5065194;28;20050;-63
2022/07/12 06:24:55;;;;;;;6.63;2.77;;;;;;;;;;5066433;28;20388;-65
2022/07/12 06:27:22;;;;;;;4.30;2.30;;;;;;;;;;5066603;28;20028;-63
2022/07/12 06:29:55;;;;;;;3.07;2.23;;;;;;;;;;5059107;28;20033;-61
2022/07/12 06:32:21;;;;;;;4.27;2.53;;;;;;;;;;5071766;28;20056;-61
2022/07/12 06:34:48;;;;;;;9.20;1.83;;;;;;;;;;5071765;28;20069;-61
2022/07/12 06:37:15;;;;;;;4.77;2.50;;;;;;;;;;5071272;28;20027;-61
2022/07/12 06:39:42;;;;;;;3.77;1.60;;;;;;;;;;5066394;28;20508;-61
2022/07/12 06:42:08;;;;;;;2.63;1.53;;;;;;;;;;5051285;28;20488;-61
2022/07/12 06:44:35;;;;;;;9.13;2.23;;;;;;;;;;5046067;28;20037;-62
2022/07/12 06:47:02;;;;;;;5.30;2.67;;;;;;;;;;5046309;28;20388;-61
2022/07/12 06:49:29;;;;;;;2.73;1.90;;;;;;;;;;5046291;28;20136;-62
2022/07/12 06:51:55;;;;;;;2.97;1.83;;;;;;;;;;5054738;28;20380;-61
2022/07/12 06:54:22;;;;;;;3.00;1.93;;;;;;;;;;5070901;28;20110;-61
2022/07/12 06:56:49;;;;;;;4.97;2.13;;;;;;;;;;5075175;28;20162;-61
2022/07/12 06:59:16;;;;;;;2.40;1.77;;;;;;;;;;5075074;28;20479;-61
2022/07/12 07:01:43;;;;;;;2.70;1.97;;;;;;;;;;5068958;28;20035;-61
2022/07/12 07:04:10;;;;;;;4.93;1.57;;;;;;;;;;5065211;28;20044;-61
2022/07/12 07:06:37;;;;;;;10.33;2.53;;;;;;;;;;5069574;28;20144;-61
2022/07/12 07:09:07;;;;;;;8.37;2.20;;;;;;;;;;5069560;28;20112;-61
2022/07/12 07:11:34;;;;;;;1.90;1.50;;;;;;;;;;5069717;28;20082;-61
2022/07/12 07:14:01;;;;;;;2.60;2.03;;;;;;;;;;5069329;28;20497;-61
2022/07/12 07:16:28;;;;;;;7.33;2.37;;;;;;;;;;5058180;28;20040;-61
2022/07/12 07:18:55;;;;;;;2.73;2.00;;;;;;;;;;5054994;28;20025;-61
2022/07/12 07:21:21;;;;;;;5.10;1.83;;;;;;;;;;5054865;28;20502;-61
2022/07/12 07:23:48;;;;;;;5.80;2.07;;;;;;;;;;5054781;28;20123;-61
2022/07/12 07:26:15;;;;;;;1.63;1.23;;;;;;;;;;5054413;28;20017;-61
2022/07/12 07:31:26;;;;;;;2.17;1.42;;;;;;;;;;5069297;28;20102;-61
2022/07/12 07:33:53;;;;;;;3.27;1.97;;;;;;;;;;5068955;28;20551;-60
2022/07/12 07:36:20;;;;;;;2.03;1.83;;;;;;;;;;5068934;28;20421;-62
2022/07/12 07:38:46;;;;;;;2.43;2.00;;;;;;;;;;5073891;28;20043;-61
2022/07/12 07:41:13;;;;;;;4.43;2.53;;;;;;;;;;5055509;28;20075;-61
2022/07/12 07:43:40;;;;;;;2.37;1.57;;;;;;;;;;5054224;28;20048;-61
2022/07/12 07:46:06;;;;;;;3.17;1.83;;;;;;;;;;5054376;28;20480;-61
2022/07/12 07:48:33;;;;;;;2.47;1.80;;;;;;;;;;5054415;28;20024;-61
2022/07/12 07:51:00;;;;;;;3.83;1.93;;;;;;;;;;5048907;28;20048;-60
2022/07/12 07:53:26;;;;;;;1.83;1.50;;;;;;;;;;5067292;28;20078;-62
2022/07/12 07:55:53;;;;;;;6.30;2.17;;;;;;;;;;5068601;28;20060;-61
2022/07/12 07:58:23;;;;;;;2.93;1.87;;;;;;;;;;5068545;28;20099;-61
2022/07/12 08:00:53;;;;;;;2.47;1.40;;;;;;;;;;5072857;28;20073;-61
2022/07/12 08:03:20;;;;;;;3.70;2.37;;;;;;;;;;5073888;28;20044;-61
2022/07/12 08:05:48;;;;;;;4.13;1.77;;;;;;;;;;5053889;28;20025;-61
2022/07/12 08:08:14;;;;;;;2.80;2.03;;;;;;;;;;5053369;28;20025;-60
2022/07/12 08:10:41;;;;;;;8.00;3.03;;;;;;;;;;5053831;28;20549;-61
2022/07/12 08:13:08;;;;;;;3.23;1.90;;;;;;;;;;5048984;28;20025;-61
2022/07/12 08:15:34;;;;;;;28.97;2.13;;;;;;;;;;5048253;28;20033;-61
2022/07/12 08:18:02;;;;;;;1.83;1.13;;;;;;;;;;5066823;28;20028;-61
2022/07/12 08:20:29;;;;;;;6.07;2.57;;;;;;;;;;5068112;28;20039;-61
2022/07/12 08:22:55;;;;;;;2.60;1.90;;;;;;;;;;5052212;28;20075;-61
2022/07/12 08:25:22;;;;;;;3.17;1.70;;;;;;;;;;5053412;28;20044;-60
2022/07/12 08:27:49;;;;;;;3.20;2.13;;;;;;;;;;5054935;28;20036;-61
2022/07/12 08:30:16;;;;;;;13.73;1.57;;;;;;;;;;5073523;28;20047;-61
2022/07/12 08:32:46;;;;;;;1.60;1.27;;;;;;;;;;5073347;28;20356;-61
2022/07/12 08:35:14;;;;;;;2.17;1.60;;;;;;;;;;5069086;28;20021;-61
2022/07/12 08:37:41;;;;;;;2.07;1.23;;;;;;;;;;5068012;28;20029;-61
2022/07/12 08:40:08;;;;;;;6.83;1.63;;;;;;;;;;5066096;28;20515;-61
2022/07/12 08:42:36;;;;;;;3.80;2.10;;;;;;;;;;5063988;28;20043;-61
2022/07/12 08:45:02;;;;;;;5.33;2.00;;;;;;;;;;5051140;28;20032;-61
2022/07/12 08:47:29;;;;;;;5.77;1.93;;;;;;;;;;5053315;28;20025;-61
2022/07/12 08:50:19;;;;;;;2.73;1.70;;;;;;;;;;5053118;28;20024;-60
2022/07/12 08:52:46;;;;;;;2.63;1.63;;;;;;;;;;5056274;28;20020;-61
2022/07/12 08:55:19;;;;;;;22.70;2.03;;;;;;;;;;5072469;28;20077;-61
2022/07/12 08:57:46;;;;;;;5.60;2.43;;;;;;;;;;5067863;28;20054;-61
2022/07/12 09:00:13;;;;;;;2.27;1.57;;;;;;;;;;5067586;28;20096;-61
2022/07/12 09:02:53;;;;;;;4.13;2.13;;;;;;;;;;5067528;28;20458;-61
2022/07/12 09:05:21;;;;;;;4.07;2.20;;;;;;;;;;5061498;28;20047;-61
2022/07/12 09:07:49;;;;;;;2.20;1.63;;;;;;;;;;5051911;28;20100;-61
2022/07/12 09:10:16;;;;;;;2.27;1.67;;;;;;;;;;5052818;28;20140;-61
2022/07/12 09:12:43;;;;;;;2.27;1.80;;;;;;;;;;5052691;28;20021;-61
2022/07/12 09:15:20;;;;;;;4.47;2.13;;;;;;;;;;5052364;28;20065;-61
2022/07/12 09:17:55;;;;;;;3.27;2.03;;;;;;;;;;5063602;28;20035;-60
2022/07/12 09:20:24;;;;;;;7.97;2.27;;;;;;;;;;5066998;28;20482;-61
2022/07/12 09:22:55;;;;;;;3.93;2.17;;;;;;;;;;5066808;28;20107;-61
2022/07/12 09:25:22;;;;;;;2.97;2.03;;;;;;;;;;5067133;28;20016;-61
2022/07/12 09:27:51;;;;;;;2.50;1.83;;;;;;;;;;5067006;28;20025;-60
2022/07/12 09:30:18;;;;;;;2.63;1.87;;;;;;;;;;5053775;28;20468;-61
2022/07/12 09:39:01;;;;;;;3.13;1.87;;;;;;;;;;5018442;28;20131;-62
2022/07/12 09:41:28;;;;;;;5.57;1.97;;;;;;;;;;5058148;28;20051;-62
2022/07/12 09:43:55;;;;;;;2.90;2.27;;;;;;;;;;5066949;28;20079;-61
2022/07/12 09:46:21;;;;;;;7.57;2.57;;;;;;;;;;5066417;28;20430;-60
2022/07/12 09:48:48;;;;;;;3.63;2.10;;;;;;;;;;5066709;28;20052;-61
2022/07/12 09:51:16;;;;;;;4.43;2.53;;;;;;;;;;5068808;28;20025;-61
2022/07/12 09:53:43;;;;;;;12.57;2.13;;;;;;;;;;5058341;28;20020;-61
2022/07/12 09:56:11;;;;;;;3.20;1.90;;;;;;;;;;5052110;28;20051;-61
2022/07/12 09:58:44;;;;;;;2.60;2.07;;;;;;;;;;5052215;28;20021;-61
2022/07/12 10:01:11;;;;;;;4.70;2.60;;;;;;;;;;5051598;28;20071;-61
2022/07/12 10:03:40;;;;;;;2.23;1.63;;;;;;;;;;5063038;28;20037;-60
2022/07/12 10:06:09;;;;;;;3.03;2.03;;;;;;;;;;5066573;28;20040;-61
2022/07/12 10:08:36;;;;;;;4.73;2.20;;;;;;;;;;5066423;28;20052;-61
2022/07/12 10:11:02;;;;;;;3.57;2.03;;;;;;;;;;5066596;28;20055;-61
2022/07/12 10:13:30;;;;;;;4.77;3.23;;;;;;;;;;5056553;28;20033;-61
2022/07/12 10:16:00;;;;;;;9.33;2.47;;;;;;;;;;5052004;28;20033;-60
2022/07/12 10:18:27;;;;;;;4.97;2.43;;;;;;;;;;5051791;28;20035;-61
2022/07/12 10:20:54;;;;;;;6.77;2.77;;;;;;;;;;5051792;28;20103;-61
2022/07/12 10:23:27;;;;;;;3.57;2.80;;;;;;;;;;5051712;28;20029;-61
2022/07/12 10:25:53;;;;;;;3.00;2.37;;;;;;;;;;5064975;28;20446;-61
2022/07/12 10:28:20;;;;;;;4.00;2.97;;;;;;;;;;5066206;28;20024;-61
2022/07/12 10:30:50;;;;;;;4.80;2.73;;;;;;;;;;5068635;28;20063;-61
2022/07/12 10:33:23;;;;;;;5.13;2.73;;;;;;;;;;5070218;28;20054;-61
2022/07/12 10:36:08;;;;;;;5.07;2.27;;;;;;;;;;5071957;28;20375;-61
2022/07/12 10:38:35;;;;;;;3.90;2.80;;;;;;;;;;5055590;28;20468;-61
2022/07/12 10:41:24;;;;;;;6.50;2.90;;;;;;;;;;5055355;28;20025;-61
2022/07/12 10:44:05;;;;;;;4.17;2.83;;;;;;;;;;5055174;28;20040;-61
2022/07/12 10:46:34;;;;;;;3.23;2.60;;;;;;;;;;5055217;28;20028;-61
2022/07/12 10:49:19;;;;;;;3.77;2.93;;;;;;;;;;5057457;28;20473;-61
2022/07/12 10:52:05;;;;;;;4.00;2.63;;;;;;;;;;5069894;28;20012;-60
2022/07/12 10:54:32;;;;;;;12.40;2.50;;;;;;;;;;5069854;28;20031;-61
2022/07/12 10:56:59;;;;;;;3.13;1.93;;;;;;;;;;5069713;28;20025;-61
2022/07/12 10:59:27;;;;;;;5.33;2.77;;;;;;;;;;5075043;28;20023;-60
2022/07/12 11:01:56;;;;;;;5.40;3.20;;;;;;;;;;5066390;28;20545;-60
2022/07/12 11:04:22;;;;;;;2.70;1.90;;;;;;;;;;5075044;28;20064;-61
2022/07/12 11:06:50;;;;;;;5.47;2.40;;;;;;;;;;5075027;28;20029;-61
2022/07/12 11:09:19;;;;;;;3.53;2.13;;;;;;;;;;5074951;28;20020;-60
2022/07/12 11:11:50;;;;;;;9.43;2.37;;;;;;;;;;5066958;28;20035;-61
2022/07/12 11:14:23;;;;;;;3.43;2.43;;;;;;;;;;5049364;28;20070;-60
2022/07/12 11:16:51;;;;;;;6.07;3.33;;;;;;;;;;5049382;28;20025;-61
2022/07/12 11:19:23;;;;;;;3.67;2.97;;;;;;;;;;5049199;28;20033;-61
2022/07/12 11:21:59;;;;;;;2.73;2.17;;;;;;;;;;5054843;28;20024;-61
2022/07/12 11:24:26;;;;;;;5.37;2.60;;;;;;;;;;5060794;28;20486;-60
2022/07/12 11:26:53;;;;;;;6.00;2.67;;;;;;;;;;5074907;28;20048;-60
2022/07/12 11:29:20;;;;;;;3.23;2.30;;;;;;;;;;5074702;28;20032;-60
2022/07/12 11:31:47;;;;;;;4.30;2.07;;;;;;;;;;5073829;28;20016;-60
2022/07/12 11:34:21;;;;;;;2.43;2.00;;;;;;;;;;5069108;28;20111;-60
2022/07/12 11:36:47;;;;;;;2.60;1.63;;;;;;;;;;5060828;28;20543;-61
2022/07/12 11:39:14;;;;;;;17.17;2.63;;;;;;;;;;5048652;28;20078;-61
2022/07/12 11:41:55;;;;;;;3.60;2.93;;;;;;;;;;5048970;28;20020;-61
2022/07/12 11:44:22;;;;;;;3.77;2.30;;;;;;;;;;5054104;28;20041;-60
2022/07/12 11:46:52;;;;;;;4.33;2.93;;;;;;;;;;5054350;28;20024;-61
2022/07/12 11:49:19;;;;;;;2.70;1.90;;;;;;;;;;5066052;28;20036;-60
2022/07/12 11:51:45;;;;;;;2.67;2.23;;;;;;;;;;5073785;28;20425;-61
2022/07/12 11:54:12;;;;;;;5.33;1.97;;;;;;;;;;5073229;28;20021;-63
2022/07/12 11:56:39;;;;;;;13.10;2.53;;;;;;;;;;5068882;28;20024;-61
2022/07/12 11:59:06;;;;;;;8.40;2.97;;;;;;;;;;5068700;28;20052;-60
2022/07/12 12:01:32;;;;;;;6.17;3.23;;;;;;;;;;5067366;28;20039;-62
2022/07/12 12:03:59;;;;;;;3.37;2.60;;;;;;;;;;5068161;28;20497;-61
2022/07/12 12:06:26;;;;;;;4.87;2.67;;;;;;;;;;5073563;28;20035;-61
2022/07/12 12:08:52;;;;;;;5.00;2.73;;;;;;;;;;5073598;28;20021;-61
2022/07/12 12:11:28;;;;;;;3.50;2.60;;;;;;;;;;5073941;28;20502;-60
2022/07/12 12:13:58;;;;;;;4.77;2.67;;;;;;;;;;5072291;28;20371;-61
2022/07/12 12:16:24;;;;;;;5.23;2.77;;;;;;;;;;5073042;28;20024;-61
2022/07/12 12:18:51;;;;;;;15.00;3.00;;;;;;;;;;5068288;28;20099;-60
2022/07/12 12:21:26;;;;;;;10.43;2.57;;;;;;;;;;5068257;28;20024;-61
2022/07/12 12:24:08;;;;;;;3.10;1.40;;;;;;;;;;5068075;28;20036;-61
2022/07/12 12:26:35;;;;;;;4.07;2.27;;;;;;;;;;5049590;28;20440;-61
2022/07/12 12:29:02;;;;;;;3.40;2.30;;;;;;;;;;5053486;28;20025;-61
2022/07/12 12:31:29;;;;;;;3.97;2.73;;;;;;;;;;5053521;28;20028;-60
2022/07/12 12:34:00;;;;;;;3.80;2.23;;;;;;;;;;5052975;28;20025;-61
2022/07/12 12:36:31;;;;;;;6.93;2.33;;;;;;;;;;5056969;28;20509;-61
2022/07/12 12:38:58;;;;;;;7.10;4.00;;;;;;;;;;5058230;28;20020;-60
2022/07/12 12:41:26;;;;;;;5.87;3.53;;;;;;;;;;5047561;28;20056;-60
2022/07/12 12:44:03;;;;;;;7.30;4.47;;;;;;;;;;5047562;28;20029;-60
2022/07/12 12:46:45;;;;;;;6.83;2.90;;;;;;;;;;5047346;28;20502;-60
2022/07/12 12:49:12;;;;;;;5.03;2.70;;;;;;;;;;5063125;28;20067;-60
2022/07/12 12:52:04;;;;;;;5.33;2.93;;;;;;;;;;5061103;28;20104;-60
2022/07/12 12:54:34;;;;;;;3.13;2.07;;;;;;;;;;5048610;28;20045;-60
2022/07/12 12:57:00;;;;;;;4.03;3.43;;;;;;;;;;5052980;28;20099;-60
2022/07/12 12:59:27;;;;;;;8.97;6.60;;;;;;;;;;5071744;28;20418;-61
2022/07/12 13:01:54;;;;;;;5.90;3.77;;;;;;;;;;5069875;28;20024;-61
2022/07/12 13:04:20;;;;;;;4.43;3.00;;;;;;;;;;5067298;28;20029;-62
2022/07/12 13:06:47;;;;;;;4.23;3.00;;;;;;;;;;5067122;28;20029;-61
2022/07/12 13:09:14;;;;;;;4.73;3.37;;;;;;;;;;5050105;28;20377;-61
2022/07/12 13:11:40;;;;;;;7.73;2.80;;;;;;;;;;5049586;28;20029;-60
2022/07/12 13:14:07;;;;;;;9.37;2.80;;;;;;;;;;5052576;28;20067;-60
2022/07/12 13:16:34;;;;;;;6.73;3.67;;;;;;;;;;5056066;28;20016;-61
2022/07/12 13:19:00;;;;;;;5.93;2.87;;;;;;;;;;5072620;28;20100;-61
2022/07/12 13:21:27;;;;;;;2.77;2.20;;;;;;;;;;5072590;28;20024;-61
2022/07/12 13:23:54;;;;;;;4.00;3.37;;;;;;;;;;5069741;28;20029;-60
2022/07/12 13:26:20;;;;;;;3.80;3.00;;;;;;;;;;5066216;28;20052;-61
2022/07/12 13:28:47;;;;;;;5.77;3.30;;;;;;;;;;5057354;28;20045;-61
2022/07/12 13:31:14;;;;;;;10.07;4.40;;;;;;;;;;5066961;28;20414;-61
2022/07/12 13:33:40;;;;;;;5.53;3.63;;;;;;;;;;5054082;28;20475;-61
2022/07/12 13:36:07;;;;;;;5.43;3.97;;;;;;;;;;5053049;28;20036;-61
2022/07/12 13:38:34;;;;;;;9.70;4.80;;;;;;;;;;5052113;28;20060;-61
2022/07/12 13:41:00;;;;;;;7.50;4.03;;;;;;;;;;5051895;28;20050;-61
2022/07/12 13:43:27;;;;;;;5.20;3.73;;;;;;;;;;5052867;28;20361;-61
2022/07/12 13:45:54;;;;;;;8.53;4.30;;;;;;;;;;5050963;28;20845;-61
2022/07/12 13:48:21;;;;;;;5.57;4.10;;;;;;;;;;5046351;28;20472;-61
2022/07/12 13:50:48;;;;;;;4.20;3.10;;;;;;;;;;5046590;28;20033;-62
2022/07/12 13:53:15;;;;;;;13.03;4.00;;;;;;;;;;5046602;28;20031;-61
2022/07/12 13:55:46;;;;;;;6.53;4.40;;;;;;;;;;5059586;28;20493;-61
2022/07/12 13:58:13;;;;;;;8.17;4.67;;;;;;;;;;5071354;28;20100;-61
2022/07/12 14:00:40;;;;;;;15.63;5.67;;;;;;;;;;5071968;28;20025;-61
2022/07/12 14:03:08;;;;;;;5.83;3.87;;;;;;;;;;5071952;28;20077;-61
2022/07/12 14:05:35;;;;;;;5.37;4.07;;;;;;;;;;5074032;28;20082;-61
2022/07/12 14:08:01;;;;;;;30.63;4.27;;;;;;;;;;5057259;28;20387;-62
2022/07/12 14:10:28;;;;;;;7.67;4.13;;;;;;;;;;5060530;28;20033;-61
2022/07/12 14:12:55;;;;;;;8.43;4.73;;;;;;;;;;5070120;28;20107;-62
2022/07/12 14:15:37;;;;;;;14.87;5.13;;;;;;;;;;5070664;28;20028;-61
2022/07/12 14:18:05;;;;;;;8.33;4.63;;;;;;;;;;5054036;28;20029;-61
2022/07/12 14:20:33;;;;;;;7.40;4.33;;;;;;;;;;5056016;28;20384;-61
2022/07/12 14:23:00;;;;;;;7.27;4.77;;;;;;;;;;5055738;28;20025;-61
2022/07/12 14:25:27;;;;;;;8.80;5.07;;;;;;;;;;5055568;28;20067;-61
2022/07/12 14:27:53;;;;;;;9.40;5.00;;;;;;;;;;5061798;28;20017;-62
2022/07/12 14:30:21;;;;;;;9.27;6.17;;;;;;;;;;5073984;28;20475;-62
2022/07/12 14:32:47;;;;;;;13.63;5.83;;;;;;;;;;5070104;28;20476;-61
2022/07/12 14:35:14;;;;;;;9.57;5.43;;;;;;;;;;5053476;28;20027;-61
2022/07/12 14:37:41;;;;;;;13.17;7.00;;;;;;;;;;5050055;28;20021;-62
2022/07/12 14:40:08;;;;;;;9.50;6.00;;;;;;;;;;5050822;28;20017;-62
2022/07/12 14:42:35;;;;;;;12.17;6.90;;;;;;;;;;5055209;28;20029;-61
2022/07/12 14:45:01;;;;;;;9.63;6.97;;;;;;;;;;5068418;28;20364;-62
2022/07/12 14:47:28;;;;;;;11.27;5.97;;;;;;;;;;5075552;28;20024;-62
2022/07/12 14:49:55;;;;;;;9.93;5.80;;;;;;;;;;5075443;28;20440;-62
2022/07/12 14:52:22;;;;;;;20.00;6.77;;;;;;;;;;5074096;28;20031;-62
2022/07/12 14:54:50;;;;;;;9.93;6.37;;;;;;;;;;5069658;28;20078;-61
2022/07/12 14:57:17;;;;;;;8.23;5.77;;;;;;;;;;5051470;28;20037;-62